Time;durP1;ratioP1;P1;durP2;ratioP2;P2;SDS_P1;SDS_P2;PMS_P1;PMS_P2;Temp;Humidity;BMP_temperature;BMP_pressure;BME280_temperature;BME280_humidity;BME280_pressure;Samples;Min_cycle;Max_cycle;Signal;HPM_P1;HPM_P2
2021/07/04 00:02:08;;;;;;;4.07;2.75;;;22.80;76.20;;;;;;5114222;28;20032;-87
2021/07/04 00:04:33;;;;;;;7.03;3.10;;;22.80;76.20;;;;;;5107562;28;20026;-86
2021/07/04 00:06:59;;;;;;;5.57;2.78;;;22.80;76.40;;;;;;5112693;28;20039;-86
2021/07/04 00:09:26;;;;;;;5.20;2.95;;;22.80;76.50;;;;;;5114134;28;20027;-87
2021/07/04 00:11:51;;;;;;;5.10;2.95;;;22.80;76.70;;;;;;5113301;28;20467;-86
2021/07/04 00:14:17;;;;;;;6.70;3.05;;;22.80;76.50;;;;;;5111370;28;20023;-86
2021/07/04 00:16:43;;;;;;;5.15;2.78;;;22.70;76.40;;;;;;5113020;28;20132;-86
2021/07/04 00:19:09;;;;;;;8.27;3.28;;;22.70;76.40;;;;;;5094094;28;20542;-87
2021/07/04 00:21:35;;;;;;;4.55;2.90;;;22.70;76.50;;;;;;5113313;28;20038;-87
2021/07/04 00:24:01;;;;;;;5.45;3.00;;;22.60;76.50;;;;;;5133466;27;20027;-86
2021/07/04 00:26:30;;;;;;;7.88;2.92;;;22.60;76.50;;;;;;5146202;27;20067;-86
2021/07/04 00:28:55;;;;;;;5.85;3.05;;;22.60;76.60;;;;;;5143853;27;20022;-87
2021/07/04 00:31:21;;;;;;;3.80;2.78;;;22.60;76.50;;;;;;5126680;27;20114;-86
2021/07/04 00:33:47;;;;;;;4.80;3.08;;;22.50;76.50;;;;;;5114601;28;20019;-86
2021/07/04 00:36:12;;;;;;;8.70;5.00;;;22.50;76.60;;;;;;5116885;28;20126;-84
2021/07/04 00:38:38;;;;;;;4.95;2.80;;;22.50;76.70;;;;;;5093883;28;20398;-87
2021/07/04 00:41:04;;;;;;;6.28;3.50;;;22.40;76.60;;;;;;5098609;28;20023;-86
2021/07/04 00:43:32;;;;;;;7.70;3.33;;;22.50;76.80;;;;;;5112712;28;20038;-87
2021/07/04 00:45:58;;;;;;;5.50;3.50;;;22.50;76.90;;;;;;5096527;28;20043;-87
2021/07/04 00:48:27;;;;;;;5.45;3.45;;;22.50;77.10;;;;;;5117127;28;20036;-87
2021/07/04 00:50:53;;;;;;;8.55;3.20;;;22.40;77.20;;;;;;5117352;28;20052;-87
2021/07/04 00:53:23;;;;;;;5.22;3.30;;;22.40;77.30;;;;;;5099014;28;20031;-87
2021/07/04 00:55:49;;;;;;;5.65;3.22;;;22.40;77.40;;;;;;5123065;27;20023;-87
2021/07/04 00:58:15;;;;;;;5.10;3.47;;;22.30;77.50;;;;;;5099202;28;20028;-87
2021/07/04 01:00:44;;;;;;;4.88;3.53;;;22.30;77.60;;;;;;5097886;28;20471;-87
2021/07/04 01:03:11;;;;;;;5.07;3.40;;;22.30;77.80;;;;;;5097064;28;20031;-87
2021/07/04 01:05:42;;;;;;;5.38;3.40;;;22.30;77.70;;;;;;5121273;27;20562;-85
2021/07/04 01:08:10;;;;;;;7.43;3.70;;;22.30;77.90;;;;;;5108847;27;20020;-86
2021/07/04 01:10:41;;;;;;;6.25;3.72;;;22.30;78.00;;;;;;5121931;27;20027;-86
2021/07/04 01:13:12;;;;;;;8.63;3.88;;;22.20;78.30;;;;;;5104547;28;20024;-85
2021/07/04 01:15:45;;;;;;;7.90;3.80;;;22.20;78.20;;;;;;5098188;28;20031;-85
2021/07/04 01:18:12;;;;;;;7.75;4.20;;;22.20;78.30;;;;;;5095664;28;20035;-86
2021/07/04 01:20:46;;;;;;;5.70;3.80;;;22.20;78.50;;;;;;5078355;28;20020;-86
2021/07/04 01:23:15;;;;;;;7.07;4.57;;;22.20;78.80;;;;;;5079966;27;20141;-85
2021/07/04 01:25:46;;;;;;;6.35;4.00;;;22.20;79.00;;;;;;5097752;28;20016;-86
2021/07/04 01:28:14;;;;;;;6.55;4.40;;;22.10;79.00;;;;;;5115964;28;20110;-86
2021/07/04 01:30:42;;;;;;;15.15;4.43;;;22.10;79.20;;;;;;5115460;28;20015;-86
2021/07/04 01:33:09;;;;;;;5.68;4.20;;;22.10;79.50;;;;;;5114253;27;20031;-86
2021/07/04 01:35:36;;;;;;;6.85;4.63;;;22.10;79.70;;;;;;5109738;28;20112;-86
2021/07/04 01:38:02;;;;;;;10.25;4.53;;;22.10;79.80;;;;;;5097259;28;20122;-86
2021/07/04 01:40:30;;;;;;;8.70;4.18;;;22.00;80.00;;;;;;5096135;28;20115;-87
2021/07/04 01:42:58;;;;;;;7.95;4.70;;;22.10;80.10;;;;;;5104230;27;20505;-87
2021/07/04 01:45:25;;;;;;;7.30;4.60;;;22.10;80.20;;;;;;5130771;27;20023;-87
2021/07/04 01:47:54;;;;;;;6.70;5.07;;;22.10;80.30;;;;;;5119274;27;20497;-86
2021/07/04 01:50:28;;;;;;;10.18;4.80;;;22.00;80.40;;;;;;5093541;28;20081;-87
2021/07/04 01:52:54;;;;;;;8.30;4.55;;;22.00;80.60;;;;;;5094086;28;20024;-87
2021/07/04 01:55:22;;;;;;;10.88;5.30;;;22.00;80.70;;;;;;5097915;28;20057;-87
2021/07/04 01:57:50;;;;;;;7.18;5.03;;;22.00;80.90;;;;;;5094227;28;20049;-86
2021/07/04 02:00:26;;;;;;;9.82;5.20;;;22.00;81.10;;;;;;5098181;28;20076;-86
2021/07/04 02:03:08;;;;;;;8.55;5.97;;;22.00;81.20;;;;;;5112846;27;20484;-86
2021/07/04 02:05:38;;;;;;;13.55;5.25;;;22.00;81.40;;;;;;5091577;28;20030;-86
2021/07/04 02:08:06;;;;;;;7.93;5.22;;;22.00;81.50;;;;;;5089708;28;20123;-86
2021/07/04 02:10:36;;;;;;;11.52;5.68;;;21.90;81.60;;;;;;5105536;28;20022;-87
2021/07/04 02:13:05;;;;;;;9.23;5.63;;;21.90;81.80;;;;;;5111689;27;20027;-86
2021/07/04 02:15:34;;;;;;;8.38;5.35;;;21.90;82.00;;;;;;5134540;27;20374;-85
2021/07/04 02:18:17;;;;;;;23.95;6.85;;;21.90;82.10;;;;;;5095494;27;20052;-86
2021/07/04 02:21:01;;;;;;;7.60;5.32;;;21.90;82.30;;;;;;5095527;28;20028;-86
2021/07/04 02:23:42;;;;;;;12.50;5.50;;;21.90;82.30;;;;;;5094761;28;20031;-86
2021/07/04 02:26:37;;;;;;;12.05;5.60;;;21.90;82.40;;;;;;5111123;27;20034;-87
2021/07/04 02:29:14;;;;;;;11.05;5.57;;;21.90;82.40;;;;;;5099598;28;20019;-87
2021/07/04 02:31:45;;;;;;;8.93;6.20;;;21.80;82.50;;;;;;5134218;28;20024;-84
2021/07/04 02:34:13;;;;;;;11.32;5.32;;;21.90;82.50;;;;;;5105158;28;20027;-84
2021/07/04 02:36:46;;;;;;;;;;;21.80;82.50;;;;;;5107827;28;20040;-85
2021/07/04 02:39:17;;;;;;;8.93;5.68;;;21.80;82.00;;;;;;5118725;27;20010;-86
2021/07/04 02:41:44;;;;;;;10.25;5.93;;;21.80;82.30;;;;;;5125105;27;20022;-85
2021/07/04 02:44:11;;;;;;;8.27;5.18;;;21.80;82.50;;;;;;5125611;27;20023;-84
2021/07/04 02:46:40;;;;;;;9.90;6.10;;;21.80;82.70;;;;;;5097154;27;20076;-86
2021/07/04 02:49:09;;;;;;;9.60;5.72;;;21.80;82.90;;;;;;5098524;27;20028;-86
2021/07/04 02:51:38;;;;;;;8.88;5.65;;;21.70;82.90;;;;;;5089324;28;20024;-85
2021/07/04 02:54:07;;;;;;;9.20;5.82;;;21.70;83.00;;;;;;5117864;27;20027;-85
2021/07/04 02:56:34;;;;;;;11.00;5.80;;;21.70;83.10;;;;;;5097773;28;20040;-84
2021/07/04 02:59:00;;;;;;;13.02;5.97;;;21.80;83.20;;;;;;5094571;28;20031;-85
2021/07/04 03:01:26;;;;;;;6.97;5.35;;;21.70;83.20;;;;;;5108337;28;20052;-86
2021/07/04 03:03:52;;;;;;;11.23;5.78;;;21.70;83.30;;;;;;5093517;28;20028;-86
2021/07/04 03:06:20;;;;;;;8.65;5.60;;;21.70;83.40;;;;;;5108256;28;20114;-86
2021/07/04 03:08:47;;;;;;;13.93;6.40;;;21.70;83.20;;;;;;5096351;28;20359;-86
2021/07/04 03:11:17;;;;;;;10.02;5.82;;;21.70;83.40;;;;;;5100512;28;20023;-86
2021/07/04 03:13:44;;;;;;;9.35;6.25;;;21.70;83.40;;;;;;5121870;28;20018;-85
2021/07/04 03:16:10;;;;;;;10.55;6.47;;;21.70;83.60;;;;;;5131327;27;20059;-84
2021/07/04 03:18:36;;;;;;;10.23;6.68;;;21.70;83.70;;;;;;5105306;27;20053;-86
2021/07/04 03:21:03;;;;;;;9.77;6.55;;;21.70;83.80;;;;;;5114458;27;20085;-86
2021/07/04 03:23:29;;;;;;;13.77;7.45;;;21.70;83.80;;;;;;5125102;27;20570;-86
2021/07/04 03:25:59;;;;;;;9.65;6.50;;;21.70;83.90;;;;;;5113436;27;20110;-86
2021/07/04 03:28:29;;;;;;;12.38;7.18;;;21.70;83.90;;;;;;5125377;27;20058;-85
2021/07/04 03:31:01;;;;;;;15.73;7.20;;;21.60;84.00;;;;;;5097609;28;20031;-87
2021/07/04 03:33:29;;;;;;;15.00;8.35;;;21.60;84.20;;;;;;5113398;28;20023;-85
2021/07/04 03:35:56;;;;;;;11.80;8.07;;;21.60;84.20;;;;;;5103372;28;20079;-86
2021/07/04 03:38:27;;;;;;;9.73;6.97;;;21.70;84.50;;;;;;5090502;28;20114;-85
2021/07/04 03:40:53;;;;;;;14.10;7.95;;;21.60;84.60;;;;;;5099537;28;20435;-85
2021/07/04 03:43:27;;;;;;;17.88;8.82;;;21.60;84.70;;;;;;5111491;28;20054;-86
2021/07/04 03:45:54;;;;;;;13.98;8.73;;;21.60;84.50;;;;;;5105401;28;20396;-86
2021/07/04 03:48:21;;;;;;;11.02;8.13;;;21.60;84.60;;;;;;5106754;28;20033;-86
2021/07/04 03:50:57;;;;;;;14.15;9.32;;;21.60;84.70;;;;;;5100996;28;20482;-86
2021/07/04 03:53:23;;;;;;;16.42;9.05;;;21.60;84.80;;;;;;5119078;27;20032;-87
2021/07/04 03:55:50;;;;;;;16.33;8.75;;;21.60;84.80;;;;;;5105078;28;20024;-86
2021/07/04 03:58:18;;;;;;;16.60;9.35;;;21.60;85.00;;;;;;5098181;28;20131;-86
2021/07/04 04:00:44;;;;;;;20.55;9.90;;;21.50;85.00;;;;;;5102483;28;20364;-86
2021/07/04 04:03:21;;;;;;;14.45;9.38;;;21.60;85.00;;;;;;5118272;28;20515;-86
2021/07/04 04:05:56;;;;;;;15.75;10.45;;;21.60;85.10;;;;;;5117379;28;20049;-87
2021/07/04 04:08:24;;;;;;;24.88;10.57;;;21.60;85.30;;;;;;5117912;28;20034;-86
2021/07/04 04:10:50;;;;;;;14.73;10.52;;;21.60;85.50;;;;;;5099944;28;20030;-86
2021/07/04 04:13:20;;;;;;;15.30;9.57;;;21.60;85.70;;;;;;5109433;28;20024;-86
2021/07/04 04:15:48;;;;;;;16.33;9.88;;;21.60;85.70;;;;;;5110076;27;20055;-85
2021/07/04 04:18:18;;;;;;;18.52;10.95;;;21.60;85.90;;;;;;5093764;28;20135;-85
2021/07/04 04:20:50;;;;;;;16.63;11.23;;;21.60;86.20;;;;;;5098451;28;20027;-86
2021/07/04 04:23:16;;;;;;;18.35;11.13;;;21.60;86.40;;;;;;5120968;27;20039;-87
2021/07/04 04:25:44;;;;;;;19.13;11.25;;;21.60;86.60;;;;;;5111460;27;20052;-86
2021/07/04 04:28:10;;;;;;;18.67;11.13;;;21.60;86.80;;;;;;5105904;27;20082;-86
2021/07/04 04:30:38;;;;;;;23.08;11.13;;;21.60;86.80;;;;;;5113103;27;20016;-86
2021/07/04 04:33:05;;;;;;;16.98;11.68;;;21.70;87.00;;;;;;5093550;28;20027;-86
2021/07/04 04:35:32;;;;;;;21.23;12.15;;;21.70;87.00;;;;;;5119692;27;20016;-86
2021/07/04 04:37:57;;;;;;;18.33;11.63;;;21.60;87.10;;;;;;5114759;28;20047;-86
2021/07/04 04:40:23;;;;;;;18.67;11.82;;;21.70;87.20;;;;;;5115436;27;20039;-87
2021/07/04 04:42:49;;;;;;;18.98;11.27;;;21.60;87.30;;;;;;5117755;27;20204;-87
2021/07/04 04:45:15;;;;;;;17.15;11.27;;;21.70;87.40;;;;;;5114123;28;20022;-87
2021/07/04 04:47:41;;;;;;;16.20;11.30;;;21.70;87.60;;;;;;5097334;28;20024;-87
2021/07/04 04:50:08;;;;;;;17.08;11.48;;;21.70;87.60;;;;;;5115483;27;20053;-87
2021/07/04 04:52:35;;;;;;;20.67;11.70;;;21.70;87.60;;;;;;5117556;28;20054;-88
2021/07/04 04:55:03;;;;;;;18.10;11.73;;;21.70;87.50;;;;;;5116235;28;20027;-87
2021/07/04 04:57:28;;;;;;;18.38;11.52;;;21.70;87.50;;;;;;5116334;27;20131;-87
2021/07/04 04:59:54;;;;;;;20.17;12.60;;;21.70;87.50;;;;;;5113772;28;20051;-87
2021/07/04 05:02:20;;;;;;;19.88;11.23;;;21.80;87.60;;;;;;5098022;28;20042;-86
2021/07/04 05:04:46;;;;;;;23.08;11.48;;;21.80;87.70;;;;;;5116439;28;20020;-87
2021/07/04 05:07:12;;;;;;;19.30;11.27;;;21.80;87.50;;;;;;5104736;28;20052;-88
2021/07/04 05:09:37;;;;;;;21.88;11.40;;;21.80;87.10;;;;;;5114839;28;20016;-87
2021/07/04 05:12:06;;;;;;;15.10;10.43;;;21.70;86.60;;;;;;5122232;27;20031;-87
2021/07/04 05:14:33;;;;;;;20.23;11.65;;;21.70;86.10;;;;;;5104410;27;20038;-87
2021/07/04 05:17:01;;;;;;;15.77;10.70;;;21.70;86.00;;;;;;5105352;27;20052;-87
2021/07/04 05:19:30;;;;;;;20.40;12.00;;;21.70;85.90;;;;;;5127273;27;20035;-87
2021/07/04 05:21:56;;;;;;;16.65;11.43;;;21.70;85.10;;;;;;5123037;27;20030;-88
2021/07/04 05:24:24;;;;;;;19.27;11.43;;;21.70;85.30;;;;;;5137153;27;20118;-89
2021/07/04 05:26:50;;;;;;;19.15;11.38;;;21.70;85.10;;;;;;5118445;28;20032;-89
2021/07/04 05:29:16;;;;;;;18.63;12.25;;;21.70;84.80;;;;;;5122759;27;20027;-88
2021/07/04 05:31:41;;;;;;;16.52;11.30;;;21.70;84.50;;;;;;5145081;27;20051;-87
2021/07/04 05:34:07;;;;;;;20.73;11.23;;;21.70;84.50;;;;;;5128240;28;20075;-86
2021/07/04 05:36:33;;;;;;;19.77;12.80;;;21.70;84.00;;;;;;5112306;28;20040;-88
2021/07/04 05:38:59;;;;;;;18.55;11.95;;;21.70;83.90;;;;;;5116000;27;20031;-88
2021/07/04 05:41:24;;;;;;;21.50;12.73;;;21.70;83.70;;;;;;5109189;28;20408;-88
2021/07/04 05:43:50;;;;;;;19.77;12.85;;;21.70;83.30;;;;;;5100110;27;20027;-88
2021/07/04 05:46:16;;;;;;;21.58;13.15;;;21.70;83.60;;;;;;5117043;27;20020;-87
2021/07/04 05:48:44;;;;;;;28.00;12.50;;;21.70;84.00;;;;;;5114546;28;20058;-88
2021/07/04 05:51:11;;;;;;;23.67;13.50;;;21.70;84.10;;;;;;5102748;28;20028;-87
2021/07/04 05:53:37;;;;;;;21.58;12.43;;;21.70;83.60;;;;;;5115950;27;20031;-88
2021/07/04 05:56:03;;;;;;;23.77;13.20;;;21.70;83.90;;;;;;5116031;28;20030;-87
2021/07/04 05:58:29;;;;;;;20.88;13.02;;;21.70;84.40;;;;;;5115791;28;20035;-88
2021/07/04 06:00:54;;;;;;;22.13;12.00;;;21.70;83.20;;;;;;5113866;28;20027;-88
2021/07/04 06:03:20;;;;;;;20.52;12.35;;;21.70;82.80;;;;;;5124107;27;20035;-88
2021/07/04 06:05:46;;;;;;;18.75;12.90;;;21.80;83.00;;;;;;5114494;28;20019;-88
2021/07/04 06:08:11;;;;;;;17.75;11.68;;;21.80;82.90;;;;;;5127449;28;20023;-87
2021/07/04 06:10:37;;;;;;;18.73;12.85;;;21.80;82.90;;;;;;5136808;27;20004;-87
2021/07/04 06:13:03;;;;;;;16.50;11.55;;;21.80;82.50;;;;;;5139711;27;20019;-87
2021/07/04 06:15:29;;;;;;;19.98;13.27;;;21.80;81.80;;;;;;5126913;28;20092;-88
2021/07/04 06:17:55;;;;;;;18.13;12.35;;;21.80;82.00;;;;;;5113008;28;20087;-88
2021/07/04 06:20:21;;;;;;;19.75;13.23;;;21.80;82.00;;;;;;5095509;28;20035;-88
2021/07/04 06:22:47;;;;;;;19.60;13.45;;;21.90;82.30;;;;;;5095838;28;20024;-88
2021/07/04 06:25:14;;;;;;;20.58;12.95;;;21.90;82.40;;;;;;5114890;27;20036;-87
2021/07/04 06:27:41;;;;;;;23.52;15.30;;;21.90;82.70;;;;;;5102700;28;20081;-87
2021/07/04 06:30:09;;;;;;;21.63;13.38;;;21.90;83.40;;;;;;5114167;27;20132;-87
2021/07/04 06:32:35;;;;;;;19.30;12.75;;;21.90;83.30;;;;;;5115485;28;20552;-87
2021/07/04 06:35:01;;;;;;;20.90;13.48;;;22.00;83.50;;;;;;5111826;28;20024;-87
2021/07/04 06:37:27;;;;;;;22.63;14.35;;;22.00;83.30;;;;;;5103848;28;20108;-85
2021/07/04 06:39:52;;;;;;;19.40;13.43;;;22.00;83.00;;;;;;5097851;28;20032;-88
2021/07/04 06:42:18;;;;;;;20.75;12.63;;;22.00;83.40;;;;;;5098410;27;20036;-87
2021/07/04 06:44:44;;;;;;;20.67;14.27;;;22.10;82.40;;;;;;5113217;27;20465;-86
2021/07/04 06:47:09;;;;;;;19.80;13.00;;;22.10;82.20;;;;;;5120087;27;20028;-87
2021/07/04 06:49:35;;;;;;;24.23;13.73;;;22.10;82.70;;;;;;5122863;27;20103;-88
2021/07/04 06:52:01;;;;;;;19.63;13.32;;;22.10;82.40;;;;;;5111474;27;20046;-86
2021/07/04 06:54:27;;;;;;;27.35;13.60;;;22.20;82.50;;;;;;5113935;28;20028;-87
2021/07/04 06:56:52;;;;;;;16.83;10.57;;;22.10;82.60;;;;;;5113720;27;20035;-75
2021/07/04 06:59:18;;;;;;;19.33;12.27;;;22.20;82.60;;;;;;5118195;27;20044;-73
2021/07/04 07:01:46;;;;;;;19.95;13.35;;;22.20;82.10;;;;;;5113653;28;20027;-73
2021/07/04 07:04:13;;;;;;;19.30;12.90;;;22.20;82.10;;;;;;5113066;28;20107;-73
2021/07/04 07:06:39;;;;;;;18.50;12.70;;;22.30;82.50;;;;;;5114648;28;20035;-73
2021/07/04 07:09:05;;;;;;;18.70;12.57;;;22.20;82.70;;;;;;5112585;27;20020;-73
2021/07/04 07:11:31;;;;;;;18.65;11.73;;;22.20;81.60;;;;;;5118681;27;20118;-73
2021/07/04 07:13:57;;;;;;;17.35;11.82;;;22.30;81.60;;;;;;5125831;27;20077;-73
2021/07/04 07:16:23;;;;;;;16.80;10.43;;;22.30;81.40;;;;;;5121540;27;20039;-73
2021/07/04 07:18:48;;;;;;;17.83;11.18;;;22.30;81.80;;;;;;5119333;27;20027;-73
2021/07/04 07:21:17;;;;;;;16.35;10.80;;;22.30;81.40;;;;;;5106037;27;20019;-73
2021/07/04 07:23:42;;;;;;;15.25;10.50;;;22.40;81.60;;;;;;5124516;27;20027;-73
2021/07/04 07:26:08;;;;;;;14.43;9.05;;;22.40;81.40;;;;;;5114888;27;20024;-75
2021/07/04 07:28:34;;;;;;;14.68;8.75;;;22.40;81.00;;;;;;5109065;28;20030;-73
2021/07/04 07:31:10;;;;;;;13.80;8.90;;;22.40;81.00;;;;;;5093147;28;20030;-73
2021/07/04 07:33:36;;;;;;;12.25;8.45;;;22.40;81.60;;;;;;5122511;27;20020;-73
2021/07/04 07:36:04;;;;;;;10.38;6.95;;;22.40;80.80;;;;;;5101661;28;20032;-73
2021/07/04 07:38:29;;;;;;;12.50;8.77;;;22.50;80.80;;;;;;5118351;27;20039;-73
2021/07/04 07:40:55;;;;;;;11.45;8.27;;;22.40;81.10;;;;;;5119621;28;20028;-73
2021/07/04 07:43:21;;;;;;;12.30;7.60;;;22.40;81.40;;;;;;5110023;28;20028;-74
2021/07/04 07:45:46;;;;;;;13.75;9.27;;;22.50;80.80;;;;;;5103290;28;20115;-74
2021/07/04 07:48:13;;;;;;;12.63;9.23;;;22.50;81.10;;;;;;5119411;28;20495;-73
2021/07/04 07:51:12;;;;;;;14.85;9.27;;;22.50;82.30;;;;;;5083554;28;20501;-73
2021/07/04 07:53:37;;;;;;;11.40;7.50;;;22.60;81.50;;;;;;5112509;28;20665;-73
2021/07/04 07:56:06;;;;;;;14.07;9.20;;;22.60;81.00;;;;;;5113919;28;20128;-73
2021/07/04 07:58:45;;;;;;;14.15;9.55;;;22.60;81.60;;;;;;5090575;28;20031;-74
2021/07/04 08:01:14;;;;;;;13.32;8.80;;;22.60;81.70;;;;;;5110694;28;20395;-73
2021/07/04 08:03:40;;;;;;;16.48;8.63;;;22.70;82.00;;;;;;5113932;28;20046;-73
2021/07/04 08:06:05;;;;;;;12.93;8.75;;;22.70;81.00;;;;;;5111133;28;20470;-73
2021/07/04 08:08:31;;;;;;;11.50;8.13;;;22.80;81.30;;;;;;5114180;28;20024;-73
2021/07/04 08:10:59;;;;;;;12.15;8.07;;;22.80;82.10;;;;;;5107751;28;20040;-73
2021/07/04 08:13:25;;;;;;;11.45;7.43;;;22.80;81.70;;;;;;5125313;28;20027;-73
2021/07/04 08:15:53;;;;;;;10.30;8.10;;;22.90;81.10;;;;;;5112736;28;20042;-72
2021/07/04 08:18:19;;;;;;;10.80;7.57;;;22.90;81.20;;;;;;5121506;28;20039;-73
2021/07/04 08:20:45;;;;;;;10.30;7.75;;;22.90;81.50;;;;;;5111969;28;20023;-73
2021/07/04 08:23:10;;;;;;;10.93;6.68;;;22.90;80.60;;;;;;5111403;28;20023;-73
2021/07/04 08:25:36;;;;;;;9.52;5.53;;;23.00;80.20;;;;;;5111397;28;20019;-74
2021/07/04 08:28:02;;;;;;;10.18;7.28;;;23.00;79.80;;;;;;5120764;28;20436;-73
2021/07/04 08:30:28;;;;;;;10.85;7.43;;;23.10;80.90;;;;;;5115173;28;20059;-72
2021/07/04 08:32:53;;;;;;;9.85;6.63;;;23.10;80.80;;;;;;5123018;28;20089;-72
2021/07/04 08:35:19;;;;;;;11.90;6.85;;;23.10;81.20;;;;;;5124289;27;20019;-73
2021/07/04 08:37:45;;;;;;;8.52;5.97;;;23.20;80.80;;;;;;5119281;27;20036;-73
2021/07/04 08:40:15;;;;;;;10.32;6.68;;;23.20;80.40;;;;;;5121098;27;20035;-80
2021/07/04 08:42:41;;;;;;;9.95;6.35;;;23.30;80.50;;;;;;5116458;27;20103;-80
2021/07/04 08:45:07;;;;;;;7.13;4.72;;;23.30;80.30;;;;;;5125401;27;20479;-79
2021/07/04 08:47:36;;;;;;;8.52;5.90;;;23.40;80.50;;;;;;5122717;27;20063;-80
2021/07/04 08:50:06;;;;;;;9.60;5.75;;;23.40;80.40;;;;;;5123263;27;20023;-79
2021/07/04 08:52:32;;;;;;;11.25;6.00;;;23.50;80.60;;;;;;5103218;27;20046;-79
2021/07/04 08:54:58;;;;;;;7.03;4.93;;;23.60;80.10;;;;;;5118240;27;20493;-79
2021/07/04 08:57:23;;;;;;;9.10;5.82;;;23.60;79.30;;;;;;5119213;27;20032;-79
2021/07/04 08:59:52;;;;;;;9.35;5.50;;;23.60;78.80;;;;;;5103441;28;20580;-78
2021/07/04 09:02:32;;;;;;;7.32;5.15;;;23.60;79.00;;;;;;5086165;27;20058;-74
2021/07/04 09:05:09;;;;;;;9.43;6.38;;;23.70;79.00;;;;;;5109262;27;20118;-80
2021/07/04 09:07:36;;;;;;;9.23;6.10;;;23.70;79.30;;;;;;5117790;27;20034;-82
2021/07/04 09:10:05;;;;;;;9.18;6.25;;;23.70;79.40;;;;;;5128176;27;20409;-72
2021/07/04 09:12:38;;;;;;;6.43;4.38;;;23.70;79.80;;;;;;5128867;27;20402;-70
2021/07/04 09:15:28;;;;;;;10.80;5.68;;;23.70;78.80;;;;;;5117742;27;20027;-71
2021/07/04 09:18:01;;;;;;;11.43;6.22;;;23.70;78.40;;;;;;5119778;27;20051;-76
2021/07/04 09:20:30;;;;;;;9.68;7.40;;;23.70;78.60;;;;;;5119780;27;20027;-76
2021/07/04 09:22:57;;;;;;;10.38;7.10;;;23.70;78.90;;;;;;5123121;27;20028;-76
2021/07/04 09:25:28;;;;;;;11.75;7.63;;;23.80;79.30;;;;;;5121632;27;20475;-75
2021/07/04 09:28:02;;;;;;;10.80;8.55;;;23.80;79.60;;;;;;5109710;27;20036;-82
2021/07/04 09:30:40;;;;;;;12.13;8.57;;;23.80;78.80;;;;;;5115440;27;20041;-79
2021/07/04 09:33:32;;;;;;;11.38;9.32;;;23.80;78.70;;;;;;5115381;27;20032;-75
2021/07/04 09:36:09;;;;;;;11.43;7.72;;;23.80;78.80;;;;;;5124957;27;20069;-75
2021/07/04 09:38:42;;;;;;;9.40;7.07;;;23.90;79.10;;;;;;5117157;27;20114;-82
2021/07/04 09:41:13;;;;;;;9.60;6.40;;;23.90;79.10;;;;;;5116054;27;20023;-83
2021/07/04 09:43:39;;;;;;;11.15;6.30;;;23.90;78.10;;;;;;5122157;27;20023;-83
2021/07/04 09:46:11;;;;;;;10.55;6.80;;;23.90;78.50;;;;;;5130309;27;20109;-84
2021/07/04 09:48:41;;;;;;;9.75;5.90;;;24.00;79.00;;;;;;5120524;27;20503;-84
2021/07/04 09:51:20;;;;;;;8.82;6.00;;;24.00;78.30;;;;;;5120718;27;20024;-85
2021/07/04 09:53:50;;;;;;;10.15;5.25;;;24.00;78.70;;;;;;5120674;27;20177;-84
2021/07/04 09:56:25;;;;;;;9.30;5.45;;;24.00;78.20;;;;;;5117042;27;20106;-82
2021/07/04 09:58:57;;;;;;;7.88;5.45;;;24.10;78.40;;;;;;5122560;27;20034;-81
2021/07/04 10:01:33;;;;;;;6.97;4.38;;;24.10;78.10;;;;;;5122641;27;20074;-82
2021/07/04 10:04:19;;;;;;;8.85;6.00;;;24.20;77.90;;;;;;5128046;27;20779;-82
2021/07/04 10:06:49;;;;;;;8.63;5.93;;;24.20;77.80;;;;;;5118593;27;20080;-82
2021/07/04 10:09:17;;;;;;;9.70;4.88;;;24.20;78.40;;;;;;5121101;27;20027;-83
2021/07/04 10:11:43;;;;;;;10.00;6.60;;;24.20;78.50;;;;;;5121094;27;20037;-82
2021/07/04 10:14:09;;;;;;;9.68;6.10;;;24.30;77.80;;;;;;5123610;27;20031;-82
2021/07/04 10:16:34;;;;;;;13.70;7.10;;;24.30;77.60;;;;;;5115551;27;20118;-83
2021/07/04 10:19:04;;;;;;;9.73;6.97;;;24.30;78.00;;;;;;5115221;27;20024;-86
2021/07/04 10:21:34;;;;;;;9.27;5.72;;;24.40;77.60;;;;;;5125538;27;20031;-84
2021/07/04 10:24:01;;;;;;;10.70;6.25;;;24.40;77.00;;;;;;5115192;27;20047;-82
2021/07/04 10:26:28;;;;;;;10.23;6.63;;;24.50;77.30;;;;;;5107050;27;20416;-82
2021/07/04 10:28:58;;;;;;;10.18;7.32;;;24.50;77.90;;;;;;5120973;27;20035;-78
2021/07/04 10:31:30;;;;;;;9.43;6.45;;;24.60;77.50;;;;;;5122705;27;20034;-82
2021/07/04 10:34:10;;;;;;;12.73;8.00;;;24.70;77.80;;;;;;5106919;28;20052;-81
2021/07/04 10:36:58;;;;;;;13.60;8.55;;;24.80;77.40;;;;;;5096232;28;20080;-82
2021/07/04 10:39:25;;;;;;;12.60;6.90;;;24.80;77.40;;;;;;5095610;28;20024;-84
2021/07/04 10:41:58;;;;;;;12.63;8.85;;;24.90;77.20;;;;;;5115199;27;20077;-81
2021/07/04 10:44:44;;;;;;;14.50;9.55;;;25.00;76.90;;;;;;5104026;28;20028;-81
2021/07/04 10:47:23;;;;;;;12.07;8.23;;;25.00;76.20;;;;;;5112080;28;20488;-81
2021/07/04 10:49:56;;;;;;;14.70;8.95;;;25.00;76.40;;;;;;5113564;28;20076;-80
2021/07/04 10:52:33;;;;;;;14.43;9.45;;;25.10;77.20;;;;;;5108871;28;20127;-84
2021/07/04 10:55:00;;;;;;;15.85;10.70;;;25.20;76.90;;;;;;5111514;27;20068;-84
2021/07/04 10:57:33;;;;;;;13.50;4.75;;;25.20;77.10;;;;;;5105011;28;20467;-82
2021/07/04 11:00:03;;;;;;;16.85;11.00;;;25.30;76.40;;;;;;5120484;27;20044;-81
2021/07/04 11:02:38;;;;;;;16.08;11.57;;;25.30;75.40;;;;;;5115962;27;20039;-81
2021/07/04 11:05:26;;;;;;;16.25;11.07;;;25.30;75.80;;;;;;5092065;28;20035;-81
2021/07/04 11:07:55;;;;;;;17.65;11.75;;;25.40;75.90;;;;;;5103983;27;20546;-83
2021/07/04 11:10:23;;;;;;;13.40;9.23;;;25.40;75.40;;;;;;5118814;27;20016;-81
2021/07/04 11:12:52;;;;;;;15.18;9.30;;;25.50;76.00;;;;;;5116742;27;20429;-71
2021/07/04 11:15:20;;;;;;;15.80;9.73;;;25.60;76.00;;;;;;5119531;27;20099;-75
2021/07/04 11:17:58;;;;;;;15.38;9.95;;;25.60;75.50;;;;;;5120618;27;20048;-76
2021/07/04 11:20:59;;;;;;;16.27;10.98;;;25.60;75.50;;;;;;5114356;27;20372;-75
2021/07/04 11:23:26;;;;;;;15.80;10.38;;;25.70;75.30;;;;;;5112790;27;20069;-75
2021/07/04 11:26:12;;;;;;;14.55;10.25;;;25.70;75.40;;;;;;5120754;27;20398;-75
2021/07/04 11:28:46;;;;;;;13.32;9.32;;;25.80;75.30;;;;;;5115216;27;20438;-76
2021/07/04 11:31:17;;;;;;;15.43;9.70;;;25.80;76.00;;;;;;5118231;27;20031;-75
2021/07/04 11:33:48;;;;;;;15.65;9.77;;;25.70;75.10;;;;;;5115545;28;20102;-75
2021/07/04 11:36:25;;;;;;;17.90;10.93;;;25.80;74.90;;;;;;5118956;27;20462;-75
2021/07/04 11:38:56;;;;;;;13.73;8.95;;;25.90;74.70;;;;;;5116891;28;20023;-75
2021/07/04 11:41:26;;;;;;;16.35;10.15;;;25.90;74.80;;;;;;5119634;27;20060;-75
2021/07/04 11:43:58;;;;;;;15.50;9.40;;;25.90;74.00;;;;;;5116055;28;20497;-72
2021/07/04 11:46:25;;;;;;;15.00;8.70;;;25.90;73.70;;;;;;5123349;28;20027;-73
2021/07/04 11:48:56;;;;;;;15.02;8.98;;;25.90;74.30;;;;;;5106216;28;20076;-74
2021/07/04 11:51:26;;;;;;;14.23;9.70;;;26.00;73.60;;;;;;5110469;28;20032;-73
2021/07/04 11:53:54;;;;;;;13.75;9.88;;;26.00;73.80;;;;;;5113067;28;20039;-75
2021/07/04 11:56:20;;;;;;;17.67;10.25;;;26.10;74.00;;;;;;5121439;28;20027;-76
2021/07/04 11:58:45;;;;;;;17.35;8.68;;;26.10;73.50;;;;;;5128499;28;20080;-75
2021/07/04 12:01:29;;;;;;;14.52;10.00;;;26.20;73.70;;;;;;5118368;28;20028;-73
2021/07/04 12:03:56;;;;;;;15.00;9.75;;;26.20;73.60;;;;;;5117784;28;20479;-77
2021/07/04 12:06:23;;;;;;;13.98;9.55;;;26.20;72.90;;;;;;5128110;28;20031;-79
2021/07/04 12:08:57;;;;;;;14.07;9.63;;;26.30;72.40;;;;;;5122867;27;20076;-80
2021/07/04 12:11:50;;;;;;;13.25;9.27;;;26.30;73.10;;;;;;5121401;27;20151;-75
2021/07/04 12:14:28;;;;;;;13.43;9.52;;;26.40;72.70;;;;;;5123379;27;20031;-89
2021/07/04 12:16:56;;;;;;;10.57;7.45;;;26.40;72.30;;;;;;5121607;27;20406;-85
2021/07/04 12:19:40;;;;;;;13.57;8.80;;;26.40;72.20;;;;;;5116277;27;20104;-82
2021/07/04 12:22:09;;;;;;;12.75;8.82;;;26.50;72.50;;;;;;5120154;27;20018;-84
2021/07/04 12:24:43;;;;;;;11.23;7.20;;;26.60;73.10;;;;;;5127756;27;20031;-81
2021/07/04 12:27:10;;;;;;;13.40;8.40;;;26.60;73.30;;;;;;5128924;27;20652;-80
2021/07/04 12:30:00;;;;;;;8.77;6.50;;;26.60;72.90;;;;;;5123096;27;20050;-85
2021/07/04 12:32:28;;;;;;;8.13;5.78;;;26.70;73.00;;;;;;5127576;27;20019;-82
2021/07/04 12:34:54;;;;;;;10.80;6.35;;;26.70;72.60;;;;;;5106873;27;20375;-74
2021/07/04 12:37:20;;;;;;;12.55;6.63;;;26.70;72.50;;;;;;5131657;27;20035;-74
2021/07/04 12:39:46;;;;;;;10.13;6.72;;;26.80;71.90;;;;;;5131191;27;20024;-73
2021/07/04 12:42:23;;;;;;;6.78;4.35;;;26.80;71.50;;;;;;5130236;27;20024;-73
2021/07/04 12:45:11;;;;;;;9.77;5.93;;;26.90;71.30;;;;;;5124858;27;20062;-74
2021/07/04 12:47:37;;;;;;;10.23;5.15;;;27.00;71.90;;;;;;5128144;27;20033;-74
2021/07/04 12:50:08;;;;;;;7.70;5.68;;;27.00;71.60;;;;;;5122927;27;20090;-74